CLMO2: North Canadian River

Data processed at Thu Jan 04 2018 23:24


All information presented herein is the property of the government of the United States of America and may be revised or deleted at any time without prior notice.
Dissemination of this information without the expressed written consent of the Public Affairs Office, Tulsa District U.S. Army Corps of Engineers is strictly prohibited.
These data are gathered electronically and, as presented, have not undergone any form of quality control. These data are not guaranteed to be valid or correct.
Go to home page.
Go to station list.

Upstream stations:

Downstream station:
Previous Day
Next Day
Current Day
    
SHEF ID:       CLMO2     North Canadian River near Calume
STATION TYPE:  

                STAGE  STAGE(2)  RIV-FLOW  WTR-TEMP   DIS-OXY        PH   CONDUCT  BAT-LOAD
                   ft        ft       cfs         F      mg/l        su   umho/cm      volt
              Ccp-Rev   Ccp-Rev   Ccp-Rev   Ccp-Rev   Ccp-Rev   Ccp-Rev   Ccp-Rev   Ccp-Rev
(US/Central)
01/02 00:00      3.68      3.71        26     30.40     13.95      8.10      1642     12.49
01/02 01:00      3.68      3.74        26     30.40     13.91      8.10      1642     12.41
01/02 02:00      3.68      3.75        26     30.40     13.88      8.10      1648     12.41
01/02 03:00      3.70      3.71        27     30.40     13.85      8.10      1646     12.41
01/02 04:00      3.72      3.69        28     30.40     13.83      8.10      1654     12.41
01/02 05:00      3.72      3.68        28     30.40     13.82      8.10      1665     12.33
01/02 06:00      3.72      3.63        28     30.40     13.79      8.10      1682     12.33
01/02 07:00      3.71      3.61        28     30.40     13.75      8.10      1699     12.33
01/02 08:00      3.72      3.60        28     30.40     13.71      8.10      1708     12.25
01/02 09:00      3.74      3.63        30     30.43     13.67      8.10      1704     12.25
01/02 10:00      3.78     33.84        32     30.49     13.64      8.10      1694     12.33
01/02 11:00      3.81      4.01        33     30.51     13.63      8.10      1684     12.49
01/02 12:00      3.84     33.84        35     30.56     13.66      8.10      1677     12.65
01/02 13:00      3.82     33.84        34     30.56     13.70      8.10      1669     12.89
01/02 14:00      3.82     33.84        34     30.58     13.75      8.10      1654     12.89
01/02 15:00      3.77     33.84        31     30.54     13.80      8.10      1638     12.97
01/02 16:00      3.72      3.67        28     30.51     13.84      8.10      1626     12.89
01/02 17:00      3.67      3.66        26     30.45     13.88      8.10      1624     12.81
01/02 18:00      3.64      3.65        25     30.42     13.90      8.10      1633     12.57
01/02 19:00      3.60      3.65        23     30.40     13.92      8.10      1643     12.49
01/02 20:00      3.59      3.65        22     30.40     13.92      8.10      1653     12.41
01/02 21:00      3.59      3.64        22     30.40     13.93      8.10      1660     12.41
01/02 22:00      3.60      3.70        23     30.40     13.92      8.10      1663     12.33
01/02 23:00      3.64      3.76        25     30.40     13.90      8.10      1664     12.25